Time;durP1;ratioP1;P1;durP2;ratioP2;P2;SDS_P1;SDS_P2;PMS_P1;PMS_P2;Temp;Humidity;BMP_temperature;BMP_pressure;BME280_temperature;BME280_humidity;BME280_pressure;Samples;Min_cycle;Max_cycle;Signal;HPM_P1;HPM_P2
2023/07/04 00:01:12;;;;;;;3.80;3.50;;;;;;;19.33;70.70;100174.50;91077;1271;138147;-64
2023/07/04 00:03:14;;;;;;;5.10;4.60;;;;;;;19.34;71.00;100175.10;91174;1276;22992;-64
2023/07/04 00:05:16;;;;;;;6.00;5.40;;;;;;;19.36;71.98;100177.83;91132;1271;138111;-64
2023/07/04 00:07:20;;;;;;;5.40;4.90;;;;;;;19.47;72.81;100179.77;91221;1273;22755;-63
2023/07/04 00:09:22;;;;;;;4.90;4.60;;;;;;;19.66;71.79;100181.18;91161;1277;137995;-68
2023/07/04 00:11:24;;;;;;;4.20;3.90;;;;;;;19.84;70.87;100182.71;91273;1272;22922;-65
2023/07/04 00:13:27;;;;;;;4.70;4.40;;;;;;;19.89;68.52;100183.97;91115;1271;138729;-65
2023/07/04 00:15:29;;;;;;;4.40;4.00;;;;;;;19.81;69.91;100182.14;91252;1267;22330;-64
2023/07/04 00:17:30;;;;;;;4.80;4.50;;;;;;;19.76;69.57;100181.48;91154;1273;137580;-64
2023/07/04 00:19:32;;;;;;;4.80;4.40;;;;;;;19.74;70.97;100184.11;91276;1272;22230;-64
2023/07/04 00:21:34;;;;;;;5.70;4.80;;;;;;;19.79;71.70;100188.54;91135;1272;139343;-64
2023/07/04 00:23:36;;;;;;;5.90;5.40;;;;;;;19.91;71.16;100185.86;91224;1272;22312;-64
2023/07/04 00:25:37;;;;;;;4.70;4.40;;;;;;;19.98;70.08;100181.35;91136;1275;138700;-65
2023/07/04 00:27:39;;;;;;;4.90;4.50;;;;;;;19.97;70.10;100178.47;91262;1270;22292;-64
2023/07/04 00:29:41;;;;;;;8.40;5.20;;;;;;;19.95;69.90;100181.96;91186;1256;138586;-68
2023/07/04 00:31:44;;;;;;;6.30;5.70;;;;;;;19.91;70.63;100187.70;91167;1272;22233;-67
2023/07/04 00:33:46;;;;;;;5.00;4.60;;;;;;;19.91;70.04;100187.82;91051;1260;137491;-64
2023/07/04 00:35:49;;;;;;;6.60;4.60;;;;;;;19.87;71.80;100190.59;91218;1273;22354;-65
2023/07/04 00:37:51;;;;;;;4.40;4.10;;;;;;;19.91;71.54;100192.59;91106;1271;138430;-66
2023/07/04 00:39:54;;;;;;;4.30;4.00;;;;;;;19.93;69.93;100192.55;91192;1273;23101;-65
2023/07/04 00:41:56;;;;;;;4.80;4.40;;;;;;;19.77;69.55;100194.08;91073;1272;138330;-65
2023/07/04 00:44:00;;;;;;;5.30;4.70;;;;;;;19.57;71.83;100196.70;91166;1261;22782;-64
2023/07/04 00:46:02;;;;;;;5.00;4.40;;;;;;;19.49;73.61;100203.41;91079;1272;138840;-65
2023/07/04 00:48:06;;;;;;;5.10;4.60;;;;;;;19.46;74.37;100205.42;91152;1272;141838;-64
2023/07/04 00:50:09;;;;;;;4.90;4.10;;;;;;;19.45;74.62;100204.44;91282;1272;22343;-65
2023/07/04 00:52:23;;;;;;;5.10;4.70;;;;;;;19.45;74.76;100201.63;91100;1273;138814;-65
2023/07/04 00:54:34;;;;;;;4.60;4.20;;;;;;;19.48;75.67;100201.78;91271;1272;22206;-65
2023/07/04 00:56:36;;;;;;;8.10;5.10;;;;;;;19.58;74.93;100205.58;91170;1271;137770;-64
2023/07/04 00:58:39;;;;;;;6.20;4.60;;;;;;;19.56;73.97;100206.74;91223;1272;22456;-63
2023/07/04 01:00:43;;;;;;;6.30;4.80;;;;;;;19.37;74.02;100214.97;91003;1272;139370;-64
2023/07/04 01:02:50;;;;;;;9.00;5.00;;;;;;;19.10;75.27;100218.65;91263;1274;22258;-66
2023/07/04 01:04:53;;;;;;;5.70;5.10;;;;;;;18.86;76.18;100221.90;91157;1272;139132;-63
2023/07/04 01:07:22;;;;;;;4.80;4.40;;;;;;;18.68;76.83;100220.39;91279;1271;23027;-64
2023/07/04 01:09:24;;;;;;;6.90;5.20;;;;;;;18.56;76.89;100216.00;91135;1272;139334;-64
2023/07/04 01:11:30;;;;;;;6.50;5.20;;;;;;;18.52;76.74;100214.53;91257;1272;22297;-64
2023/07/04 01:13:38;;;;;;;5.70;4.70;;;;;;;18.52;78.75;100216.23;91168;1256;138662;-63
2023/07/04 01:15:40;;;;;;;5.00;4.50;;;;;;;18.52;79.04;100216.35;91288;1267;22880;-64
2023/07/04 01:17:42;;;;;;;5.10;4.60;;;;;;;18.55;81.01;100217.11;91126;1271;138643;-66
2023/07/04 01:19:45;;;;;;;4.00;3.70;;;;;;;18.72;80.63;100220.73;91244;1270;22080;-66
2023/07/04 01:21:51;;;;;;;4.90;4.50;;;;;;;18.88;79.15;100224.52;91171;1273;138846;-64
2023/07/04 01:24:06;;;;;;;5.20;4.80;;;;;;;18.94;79.05;100226.56;91247;1272;22265;-65
2023/07/04 01:26:11;;;;;;;5.10;4.50;;;;;;;19.00;78.82;100227.95;91108;1273;22273;-65
2023/07/04 01:28:15;;;;;;;4.60;4.30;;;;;;;19.07;78.34;100228.11;91156;1267;138240;-65
2023/07/04 01:30:18;;;;;;;4.30;4.10;;;;;;;19.11;78.41;100228.13;91233;1272;22380;-64
2023/07/04 01:32:23;;;;;;;5.80;4.90;;;;;;;19.24;77.64;100229.88;91111;1272;137542;-64
2023/07/04 01:34:25;;;;;;;7.50;5.10;;;;;;;19.34;77.81;100234.17;91217;1273;22756;-64
2023/07/04 01:36:30;;;;;;;5.00;4.50;;;;;;;19.43;76.09;100235.34;91145;1275;137368;-65
2023/07/04 01:38:31;;;;;;;4.70;4.40;;;;;;;19.41;76.57;100228.17;91244;1272;23102;-64
2023/07/04 01:40:34;;;;;;;5.20;4.70;;;;;;;19.40;76.42;100228.86;91110;1273;138210;-64
2023/07/04 01:42:36;;;;;;;4.10;3.90;;;;;;;19.42;76.82;100225.96;91244;1272;22316;-65
2023/07/04 01:44:38;;;;;;;6.30;5.10;;;;;;;19.51;76.36;100227.55;91072;1260;138362;-64
2023/07/04 01:46:40;;;;;;;5.30;4.60;;;;;;;19.57;75.44;100226.60;91231;1272;22188;-64
2023/07/04 01:48:42;;;;;;;4.70;4.30;;;;;;;19.54;75.49;100219.58;91030;1274;139482;-64
2023/07/04 01:50:43;;;;;;;4.80;4.40;;;;;;;19.70;74.69;100229.13;91164;1276;22330;-66
2023/07/04 01:52:45;;;;;;;4.90;4.50;;;;;;;19.59;73.55;100221.96;91142;1272;137517;-66
2023/07/04 01:54:47;;;;;;;4.30;4.00;;;;;;;19.47;73.83;100231.33;91162;1277;22288;-65
2023/07/04 01:56:53;;;;;;;4.20;3.90;;;;;;;19.33;74.66;100232.00;91123;1272;137428;-65
2023/07/04 01:58:55;;;;;;;5.20;4.80;;;;;;;19.29;75.58;100237.30;91057;1273;22993;-62
2023/07/04 02:00:57;;;;;;;4.70;4.30;;;;;;;19.35;74.87;100240.14;90936;1280;138518;-63
2023/07/04 02:02:59;;;;;;;5.20;4.70;;;;;;;19.37;74.66;100243.73;91216;1272;22136;-63
2023/07/04 02:05:01;;;;;;;6.30;5.20;;;;;;;19.41;74.73;100245.69;91078;1272;138500;-65
2023/07/04 02:07:04;;;;;;;10.40;5.10;;;;;;;19.50;74.32;100247.27;91213;1272;22931;-64
2023/07/04 02:09:05;;;;;;;4.80;4.40;;;;;;;19.57;74.18;100250.27;91062;1272;137926;-66
2023/07/04 02:11:07;;;;;;;4.90;4.50;;;;;;;19.67;73.78;100251.39;91256;1271;22222;-64
2023/07/04 02:13:09;;;;;;;4.50;4.10;;;;;;;19.81;73.13;100256.83;91025;1256;138073;-64
2023/07/04 02:15:11;;;;;;;5.60;4.80;;;;;;;19.93;72.58;100256.66;91250;1274;22266;-64
2023/07/04 02:17:13;;;;;;;10.00;6.00;;;;;;;20.04;72.05;100257.88;91155;1272;138641;-65
2023/07/04 02:19:15;;;;;;;5.70;4.30;;;;;;;20.17;71.49;100259.64;91165;1263;23231;-64
2023/07/04 02:21:18;;;;;;;4.40;4.10;;;;;;;20.28;70.80;100260.02;91022;1272;137702;-64
2023/07/04 02:23:21;;;;;;;4.20;3.90;;;;;;;20.36;70.43;100256.80;91215;1272;22524;-64
2023/07/04 02:25:22;;;;;;;5.50;5.10;;;;;;;20.48;69.98;100253.56;91092;1272;137864;-63
2023/07/04 02:27:24;;;;;;;5.30;4.90;;;;;;;20.59;68.63;100251.73;91266;1272;22187;-64
2023/07/04 02:29:26;;;;;;;7.40;5.20;;;;;;;20.66;68.29;100248.45;91099;1272;138625;-64
2023/07/04 02:31:27;;;;;;;5.70;5.20;;;;;;;20.74;67.94;100250.96;91252;1274;22961;-64
2023/07/04 02:33:29;;;;;;;6.10;4.90;;;;;;;20.88;67.32;100246.25;91024;1256;137478;-63
2023/07/04 02:35:31;;;;;;;4.90;4.50;;;;;;;21.04;67.40;100247.30;91201;1272;22209;-63
2023/07/04 02:37:33;;;;;;;4.70;4.20;;;;;;;21.29;66.76;100250.11;90993;1264;137826;-65
2023/07/04 02:39:34;;;;;;;4.70;4.30;;;;;;;21.56;65.26;100248.45;91277;1273;22226;-64
2023/07/04 02:41:37;;;;;;;6.00;5.30;;;;;;;21.75;64.37;100253.21;91160;1275;137523;-62
2023/07/04 02:43:39;;;;;;;4.20;3.90;;;;;;;21.94;63.38;100253.95;91210;1272;22213;-63
2023/07/04 02:45:42;;;;;;;6.00;4.30;;;;;;;22.13;62.76;100251.60;91120;1272;138152;-63
2023/07/04 02:47:45;;;;;;;5.30;4.80;;;;;;;22.32;62.40;100246.84;91136;1267;22383;-64
2023/07/04 02:49:53;;;;;;;4.90;4.40;;;;;;;22.50;62.19;100252.04;91081;1276;137509;-64
2023/07/04 02:51:55;;;;;;;4.90;4.50;;;;;;;22.68;61.52;100252.91;91074;1272;22218;-64
2023/07/04 02:53:57;;;;;;;5.20;4.20;;;;;;;22.87;60.92;100254.02;91145;1275;138519;-65
2023/07/04 02:55:58;;;;;;;5.50;4.60;;;;;;;23.08;60.18;100248.63;91168;1272;22337;-64
2023/07/04 02:58:02;;;;;;;4.20;3.90;;;;;;;23.28;59.62;100251.33;91029;1272;138281;-62
2023/07/04 03:00:07;;;;;;;4.50;4.10;;;;;;;23.50;58.83;100253.77;91104;1272;139531;-62
2023/07/04 03:02:08;;;;;;;;;;;;;;;23.72;58.05;100252.61;91180;1260;22447;-64
2023/07/04 03:04:11;;;;;;;5.20;3.60;;;;;;;23.94;57.77;100255.70;91049;1272;127454;-64
2023/07/04 03:06:13;;;;;;;7.80;4.20;;;;;;;24.19;57.17;100261.67;91185;1273;22457;-64
2023/07/04 03:08:15;;;;;;;4.60;4.30;;;;;;;24.47;56.38;100262.27;91023;1273;138136;-63
2023/07/04 03:10:17;;;;;;;4.60;4.20;;;;;;;24.77;55.12;100263.59;91152;1272;22892;-63
2023/07/04 03:12:19;;;;;;;4.10;3.80;;;;;;;25.03;54.17;100269.48;90989;1264;138869;-62
2023/07/04 03:14:21;;;;;;;3.90;3.60;;;;;;;25.26;53.35;100270.81;91132;1274;22302;-64
2023/07/04 03:16:23;;;;;;;4.40;4.10;;;;;;;25.47;52.98;100268.80;91035;1279;139181;-63
2023/07/04 03:18:27;;;;;;;4.30;4.00;;;;;;;25.68;52.66;100272.95;91264;1263;22426;-65
2023/07/04 03:20:28;;;;;;;5.70;3.70;;;;;;;25.90;52.01;100273.95;91113;1272;139637;-63
2023/07/04 03:22:30;;;;;;;8.10;7.30;;;;;;;26.11;51.46;100275.05;91125;1265;22371;-61
2023/07/04 03:24:32;;;;;;;7.40;4.10;;;;;;;26.33;50.66;100276.16;91037;1272;138075;-63
2023/07/04 03:26:35;;;;;;;7.70;5.40;;;;;;;26.55;50.32;100277.82;91208;1272;22443;-62
2023/07/04 03:28:38;;;;;;;13.50;6.70;;;;;;;26.80;49.81;100281.05;91102;1272;137363;-63
2023/07/04 03:30:41;;;;;;;8.30;6.00;;;;;;;27.05;49.30;100277.47;91135;1269;23562;-65
2023/07/04 03:32:44;;;;;;;14.00;6.60;;;;;;;27.30;48.73;100277.64;91010;1272;138153;-65
2023/07/04 03:34:46;;;;;;;12.70;6.90;;;;;;;27.50;48.62;100272.27;91244;1271;23209;-65
2023/07/04 03:36:48;;;;;;;7.60;4.40;;;;;;;27.79;47.90;100279.84;91120;1272;138925;-64
2023/07/04 03:38:50;;;;;;;5.70;4.30;;;;;;;28.11;46.50;100274.84;91211;1272;22447;-64
2023/07/04 03:40:52;;;;;;;5.70;3.30;;;;;;;28.42;45.02;100272.52;91138;1272;137453;-64
2023/07/04 03:42:54;;;;;;;5.80;3.70;;;;;;;28.65;44.14;100273.69;91219;1271;22404;-63
2023/07/04 03:44:56;;;;;;;7.20;4.10;;;;;;;28.84;43.38;100274.21;91144;1278;137701;-65
2023/07/04 03:46:57;;;;;;;5.20;3.30;;;;;;;29.03;43.63;100277.69;91256;1275;22336;-63
2023/07/04 03:48:59;;;;;;;4.20;3.60;;;;;;;29.25;43.13;100278.13;91140;1271;138188;-62
2023/07/04 03:51:02;;;;;;;4.00;3.50;;;;;;;29.56;42.34;100275.70;91132;1260;22282;-64
2023/07/04 03:53:03;;;;;;;3.90;3.50;;;;;;;29.92;40.68;100270.95;91105;1270;137757;-65
2023/07/04 03:55:06;;;;;;;5.30;3.80;;;;;;;30.20;39.33;100268.27;91276;1272;22275;-65
2023/07/04 03:57:09;;;;;;;4.50;3.70;;;;;;;30.39;39.16;100273.30;91075;1271;137455;-65
2023/07/04 03:59:10;;;;;;;7.20;3.70;;;;;;;30.53;39.21;100275.34;91229;1272;22159;-62
2023/07/04 04:01:12;;;;;;;4.00;3.60;;;;;;;30.62;39.08;100274.23;91010;1271;137937;-64
2023/07/04 04:03:14;;;;;;;7.30;4.90;;;;;;;30.68;38.73;100274.96;91163;1271;23202;-67
2023/07/04 04:05:15;;;;;;;5.30;4.10;;;;;;;30.75;37.44;100278.98;91067;1272;138921;-63
2023/07/04 04:07:17;;;;;;;10.10;5.40;;;;;;;30.79;36.79;100281.91;91200;1271;22415;-62
2023/07/04 04:09:19;;;;;;;4.30;4.00;;;;;;;30.77;36.23;100277.65;91050;1260;139205;-63
2023/07/04 04:11:21;;;;;;;6.00;5.20;;;;;;;30.81;36.95;100288.22;91221;1266;22880;-62
2023/07/04 04:13:23;;;;;;;6.00;5.50;;;;;;;30.85;36.82;100291.39;91088;1260;138986;-63
2023/07/04 04:15:25;;;;;;;8.80;4.60;;;;;;;30.96;37.10;100289.52;91104;1272;23192;-62
2023/07/04 04:17:27;;;;;;;6.20;5.00;;;;;;;31.04;36.53;100291.05;90985;1271;138041;-64
2023/07/04 04:19:29;;;;;;;10.20;4.50;;;;;;;31.01;36.56;100290.67;91216;1271;22885;-63
2023/07/04 04:21:31;;;;;;;9.90;4.60;;;;;;;30.96;35.69;100290.36;91081;1272;139323;-63
2023/07/04 04:23:32;;;;;;;8.30;5.30;;;;;;;30.81;35.94;100283.61;91191;1271;22335;-64
2023/07/04 04:25:38;;;;;;;6.10;4.60;;;;;;;30.91;36.38;100290.39;90913;1271;138755;-63
2023/07/04 04:27:40;;;;;;;6.80;4.80;;;;;;;31.10;36.33;100293.27;91199;1271;22474;-63
2023/07/04 04:29:42;;;;;;;4.80;4.40;;;;;;;31.38;36.17;100292.46;91133;1271;139043;-64
2023/07/04 04:31:48;;;;;;;4.70;3.90;;;;;;;31.63;36.22;100290.29;91039;1262;22282;-64
2023/07/04 04:33:49;;;;;;;6.60;4.00;;;;;;;31.78;35.68;100295.76;91047;1271;138620;-64
2023/07/04 04:35:51;;;;;;;4.90;4.00;;;;;;;31.86;35.57;100297.02;91239;1271;22392;-64
2023/07/04 04:37:52;;;;;;;6.60;4.10;;;;;;;31.91;33.99;100297.39;91141;1272;137325;-62
2023/07/04 04:39:54;;;;;;;8.80;3.80;;;;;;;31.87;33.26;100301.40;91179;1271;22199;-63
2023/07/04 04:41:56;;;;;;;8.60;3.80;;;;;;;31.73;32.86;100303.92;91054;1271;137009;-66
2023/07/04 04:44:01;;;;;;;6.90;4.60;;;;;;;31.59;33.39;100309.59;91209;1272;22322;-66
2023/07/04 04:46:03;;;;;;;5.80;4.20;;;;;;;31.48;33.38;100314.55;91232;1272;22387;-66
2023/07/04 04:48:06;;;;;;;6.50;4.70;;;;;;;31.34;33.28;100318.98;91111;1272;138561;-63
2023/07/04 04:50:08;;;;;;;6.30;4.00;;;;;;;31.25;33.57;100315.45;91261;1271;22356;-64
2023/07/04 04:52:10;;;;;;;4.20;3.80;;;;;;;31.24;34.22;100321.39;91082;1271;138757;-63
2023/07/04 04:54:14;;;;;;;7.90;3.80;;;;;;;31.27;34.08;100323.84;91210;1272;23243;-64
2023/07/04 04:56:15;;;;;;;8.00;4.70;;;;;;;31.24;33.78;100322.55;91115;1270;140637;-65
2023/07/04 04:58:18;;;;;;;5.80;4.70;;;;;;;31.17;33.95;100319.45;91231;1272;22108;-64
2023/07/04 05:00:20;;;;;;;6.10;3.90;;;;;;;31.14;33.77;100322.61;91093;1271;139248;-63
2023/07/04 05:02:23;;;;;;;5.80;3.50;;;;;;;31.17;34.19;100320.14;91239;1272;22304;-63
2023/07/04 05:04:25;;;;;;;5.20;4.70;;;;;;;31.15;34.77;100311.17;91150;1272;137484;-66
2023/07/04 05:06:27;;;;;;;9.30;5.10;;;;;;;31.21;33.78;100317.51;91272;1271;23035;-63
2023/07/04 05:08:28;;;;;;;6.80;4.50;;;;;;;31.16;33.09;100317.99;91118;1271;138845;-64
2023/07/04 05:10:30;;;;;;;6.00;4.10;;;;;;;31.08;33.56;100319.13;91237;1259;22211;-64
2023/07/04 05:12:32;;;;;;;4.70;4.20;;;;;;;31.03;33.55;100320.02;91109;1271;138663;-65
2023/07/04 05:14:34;;;;;;;4.90;4.40;;;;;;;30.99;33.97;100319.98;91236;1271;22330;-64
2023/07/04 05:16:36;;;;;;;7.40;5.30;;;;;;;30.90;33.59;100323.98;91126;1271;137653;-66
2023/07/04 05:18:39;;;;;;;8.50;5.40;;;;;;;30.87;33.53;100326.21;91287;1268;22888;-64
2023/07/04 05:20:41;;;;;;;5.30;4.40;;;;;;;30.98;33.28;100325.23;91126;1260;139532;-65
2023/07/04 05:22:45;;;;;;;7.60;5.80;;;;;;;31.11;33.21;100320.38;91233;1272;23013;-64
2023/07/04 05:24:47;;;;;;;7.40;4.90;;;;;;;31.24;33.80;100318.70;91165;1271;138393;-64
2023/07/04 05:26:48;;;;;;;6.20;5.10;;;;;;;31.35;33.65;100324.66;91178;1271;23100;-65
2023/07/04 05:28:56;;;;;;;9.70;5.30;;;;;;;31.32;33.76;100328.23;91103;1258;137868;-64
2023/07/04 05:30:58;;;;;;;6.80;5.40;;;;;;;31.22;33.91;100330.59;91177;1272;22387;-65
2023/07/04 05:33:00;;;;;;;10.20;5.70;;;;;;;31.08;33.87;100331.89;91137;1271;137702;-66
2023/07/04 05:35:01;;;;;;;6.30;5.00;;;;;;;30.97;33.47;100327.75;91194;1272;22357;-65
2023/07/04 05:37:03;;;;;;;6.80;4.60;;;;;;;30.90;33.05;100329.95;91106;1258;137784;-63
2023/07/04 05:39:08;;;;;;;7.10;4.70;;;;;;;30.85;33.08;100331.68;91113;1271;22988;-65
2023/07/04 05:41:13;;;;;;;4.40;3.30;;;;;;;30.88;32.26;100329.71;91002;1271;138881;-64
2023/07/04 05:43:15;;;;;;;4.90;3.70;;;;;;;30.91;32.47;100328.88;91212;1270;22358;-65
2023/07/04 05:45:17;;;;;;;6.50;4.00;;;;;;;30.89;32.82;100326.68;90945;1272;137883;-61
2023/07/04 05:47:18;;;;;;;5.10;4.40;;;;;;;30.71;32.63;100333.83;91157;1271;22391;-66
2023/07/04 05:49:20;;;;;;;6.70;4.50;;;;;;;30.48;33.34;100333.44;90991;1271;137447;-64
2023/07/04 05:51:22;;;;;;;5.00;4.00;;;;;;;30.40;34.02;100337.29;91258;1270;22796;-66
2023/07/04 05:53:25;;;;;;;5.30;3.50;;;;;;;30.38;33.62;100336.89;91092;1271;138844;-66
2023/07/04 05:55:27;;;;;;;5.40;3.70;;;;;;;30.41;33.67;100334.37;91199;1272;22305;-66
2023/07/04 05:57:30;;;;;;;12.10;4.10;;;;;;;30.50;33.01;100334.94;91044;1271;138689;-65
2023/07/04 05:59:32;;;;;;;4.70;2.90;;;;;;;30.58;32.92;100330.57;91089;1272;22345;-65
2023/07/04 06:01:37;;;;;;;5.10;3.60;;;;;;;30.57;32.11;100332.97;90983;1272;137167;-66
2023/07/04 06:03:40;;;;;;;6.10;3.80;;;;;;;30.52;32.55;100334.71;90979;1275;22367;-65
2023/07/04 06:05:42;;;;;;;3.20;2.90;;;;;;;30.57;32.77;100337.37;90911;1274;138787;-65
2023/07/04 06:07:44;;;;;;;5.40;3.80;;;;;;;30.64;32.66;100336.65;91136;1271;22306;-65
2023/07/04 06:09:45;;;;;;;3.90;3.30;;;;;;;30.67;32.54;100338.30;91103;1271;139093;-66
2023/07/04 06:11:48;;;;;;;3.00;2.80;;;;;;;30.71;32.07;100341.52;91129;1272;22288;-66
2023/07/04 06:13:50;;;;;;;2.80;2.50;;;;;;;30.80;32.38;100340.53;91061;1272;138316;-65
2023/07/04 06:15:52;;;;;;;4.30;3.10;;;;;;;30.98;32.64;100336.45;91126;1271;22322;-66
2023/07/04 06:17:54;;;;;;;8.00;3.10;;;;;;;31.21;31.68;100337.45;91103;1272;140003;-64
2023/07/04 06:19:55;;;;;;;3.10;2.60;;;;;;;31.35;31.41;100341.65;91207;1271;22943;-64
2023/07/04 06:21:58;;;;;;;4.60;3.20;;;;;;;31.30;31.18;100346.43;91119;1271;138372;-62
2023/07/04 06:24:00;;;;;;;8.90;3.00;;;;;;;31.18;31.15;100344.55;91183;1268;22407;-65
2023/07/04 06:26:02;;;;;;;2.70;2.40;;;;;;;31.10;30.48;100342.27;91005;1272;137322;-65
2023/07/04 06:28:04;;;;;;;3.50;2.50;;;;;;;31.10;30.69;100345.26;91120;1263;139901;-65
2023/07/04 06:30:08;;;;;;;3.50;3.20;;;;;;;31.18;31.25;100346.30;91125;1271;22376;-62
2023/07/04 06:32:10;;;;;;;2.80;2.50;;;;;;;31.33;31.55;100348.06;91090;1271;137781;-64
2023/07/04 06:34:12;;;;;;;4.50;2.90;;;;;;;31.41;30.09;100347.19;91261;1256;22416;-65
2023/07/04 06:36:15;;;;;;;2.90;2.70;;;;;;;31.29;29.91;100347.95;91106;1272;138417;-66
2023/07/04 06:38:17;;;;;;;3.30;2.20;;;;;;;31.13;29.74;100347.95;91122;1272;22185;-67
2023/07/04 06:40:18;;;;;;;3.20;2.90;;;;;;;31.01;29.45;100352.01;91114;1270;140998;-65
2023/07/04 06:42:20;;;;;;;3.70;3.00;;;;;;;30.86;29.57;100351.93;91197;1271;22318;-68
2023/07/04 06:44:23;;;;;;;3.10;2.90;;;;;;;30.65;30.29;100353.61;91092;1272;138940;-64
2023/07/04 06:46:25;;;;;;;3.40;2.80;;;;;;;30.53;30.46;100349.44;91191;1257;22235;-65
2023/07/04 06:48:28;;;;;;;4.30;2.70;;;;;;;30.47;30.59;100349.95;91117;1270;138490;-64
2023/07/04 06:50:30;;;;;;;4.80;3.10;;;;;;;30.53;30.47;100350.46;91206;1271;22478;-67
2023/07/04 06:52:33;;;;;;;5.70;3.10;;;;;;;30.67;30.20;100347.48;91099;1271;138041;-65
2023/07/04 06:54:34;;;;;;;3.30;2.70;;;;;;;30.79;30.23;100349.27;91149;1260;22476;-65
2023/07/04 06:56:37;;;;;;;3.20;2.90;;;;;;;30.89;30.03;100351.21;91058;1272;137751;-66
2023/07/04 06:58:41;;;;;;;6.60;2.70;;;;;;;30.99;30.45;100355.64;91145;1272;22226;-64
2023/07/04 07:00:44;;;;;;;8.40;3.20;;;;;;;31.12;29.95;100353.61;91037;1272;138330;-68
2023/07/04 07:02:50;;;;;;;3.10;2.60;;;;;;;31.15;29.66;100353.57;91201;1271;23074;-66
2023/07/04 07:04:52;;;;;;;3.90;2.50;;;;;;;31.13;29.61;100354.58;91028;1271;137416;-65
2023/07/04 07:06:54;;;;;;;4.10;3.40;;;;;;;31.10;29.36;100359.48;91173;1272;22942;-64
2023/07/04 07:08:55;;;;;;;2.80;2.60;;;;;;;31.06;28.87;100354.91;90999;1257;137701;-66
2023/07/04 07:10:59;;;;;;;5.20;3.30;;;;;;;31.01;28.67;100352.03;91322;1270;22349;-65
2023/07/04 07:13:03;;;;;;;2.90;2.70;;;;;;;30.95;29.26;100348.84;91034;1272;138807;-63
2023/07/04 07:15:05;;;;;;;4.20;3.00;;;;;;;30.93;29.32;100351.65;91241;1270;22284;-64
2023/07/04 07:19:24;;;;;;;2.50;2.20;;;;;;;30.76;29.00;100354.20;85596;1305;544951;-64
2023/07/04 07:21:26;;;;;;;2.80;2.50;;;;;;;30.68;29.72;100353.80;87232;1286;137829;-66
2023/07/04 07:23:28;;;;;;;3.10;2.30;;;;;;;30.77;29.89;100352.48;87168;1286;24838;-66
2023/07/04 07:25:30;;;;;;;4.30;2.80;;;;;;;30.84;29.80;100349.11;87193;1285;138684;-66
2023/07/04 07:27:32;;;;;;;3.10;2.80;;;;;;;30.90;29.48;100346.95;87293;1285;26567;-65
2023/07/04 07:29:35;;;;;;;4.60;3.00;;;;;;;30.93;29.49;100341.46;87314;1266;138885;-61
2023/07/04 07:31:36;;;;;;;4.90;3.00;;;;;;;30.92;29.45;100340.46;87528;1285;22545;-66
2023/07/04 07:33:41;;;;;;;5.10;3.10;;;;;;;30.90;29.77;100342.94;87528;1282;158893;-66
2023/07/04 07:35:43;;;;;;;4.20;2.80;;;;;;;30.87;29.55;100348.72;87741;1279;22766;-66
2023/07/04 07:37:44;;;;;;;6.40;3.10;;;;;;;30.78;28.80;100352.77;87467;1278;137080;-66
2023/07/04 07:39:48;;;;;;;5.70;2.80;;;;;;;30.68;28.73;100352.16;87646;1278;24276;-65
2023/07/04 07:41:50;;;;;;;2.70;2.40;;;;;;;30.51;29.33;100350.39;87585;1263;137812;-64
2023/07/04 07:43:52;;;;;;;3.80;2.60;;;;;;;30.35;29.44;100347.80;87611;1267;23165;-64
2023/07/04 07:45:53;;;;;;;4.30;3.10;;;;;;;30.20;29.72;100347.35;88072;1271;138828;-68
2023/07/04 07:47:55;;;;;;;4.50;3.10;;;;;;;30.16;30.03;100345.94;88067;1270;23538;-64
2023/07/04 07:49:57;;;;;;;2.60;2.30;;;;;;;30.17;29.89;100347.23;88768;1273;137532;-65
2023/07/04 07:51:59;;;;;;;6.20;3.00;;;;;;;30.08;29.96;100347.58;88115;1270;22532;-67
2023/07/04 07:54:06;;;;;;;2.40;2.20;;;;;;;29.85;30.28;100343.14;88304;1270;22561;-65
2023/07/04 07:56:10;;;;;;;4.90;3.10;;;;;;;29.67;31.24;100345.45;88051;1267;138975;-65
2023/07/04 07:58:12;;;;;;;3.90;2.90;;;;;;;29.60;31.18;100345.41;88113;1271;24564;-64
2023/07/04 08:00:14;;;;;;;3.20;2.00;;;;;;;29.56;31.31;100344.75;88014;1271;139336;-64
2023/07/04 08:02:16;;;;;;;3.60;3.00;;;;;;;29.46;30.74;100347.09;88082;1263;24212;-68
2023/07/04 08:04:18;;;;;;;5.00;3.50;;;;;;;29.29;30.67;100349.29;87998;1272;139132;-64
2023/07/04 08:06:34;;;;;;;5.60;3.80;;;;;;;29.16;30.91;100351.20;88095;1268;24251;-66
2023/07/04 08:08:36;;;;;;;3.30;3.00;;;;;;;29.06;30.78;100352.21;87904;1270;138119;-65
2023/07/04 08:10:40;;;;;;;2.90;2.70;;;;;;;28.94;30.07;100349.35;88131;1270;25855;-63
2023/07/04 08:12:42;;;;;;;6.90;3.00;;;;;;;28.83;29.41;100351.14;88102;1274;137361;-67
2023/07/04 08:14:43;;;;;;;3.10;2.80;;;;;;;28.72;29.51;100351.70;88153;1270;22666;-65
2023/07/04 08:16:48;;;;;;;7.40;3.30;;;;;;;28.64;29.97;100347.52;88064;1270;137363;-66
2023/07/04 08:18:50;;;;;;;3.00;2.70;;;;;;;28.62;29.63;100349.41;88289;1270;24200;-65
2023/07/04 08:20:56;;;;;;;3.20;2.90;;;;;;;28.59;29.67;100349.09;88074;1266;139055;-64
2023/07/04 08:22:59;;;;;;;8.00;3.10;;;;;;;28.58;30.10;100348.38;88207;1275;22546;-65
2023/07/04 19:36:39;;;;;;;8.00;5.60;;;;;;;25.09;45.59;100301.87;85383;1305;546366;-62
2023/07/04 19:38:41;;;;;;;6.20;4.70;;;;;;;25.05;45.75;100298.96;87363;1285;24390;-65
2023/07/04 19:40:57;;;;;;;5.30;3.90;;;;;;;25.02;46.16;100301.06;87298;1284;137739;-69
2023/07/04 19:42:59;;;;;;;5.30;4.60;;;;;;;24.97;46.19;100296.53;87392;1288;22549;-66
2023/07/04 19:45:01;;;;;;;8.60;4.90;;;;;;;24.91;46.39;100300.67;87717;1284;138892;-66
2023/07/04 19:47:03;;;;;;;9.30;4.10;;;;;;;24.87;46.45;100300.87;87704;1276;23877;-68
2023/07/04 19:49:05;;;;;;;6.70;4.30;;;;;;;24.83;46.79;100299.15;87577;1281;136982;-67
2023/07/04 19:51:15;;;;;;;7.30;5.00;;;;;;;24.76;47.04;100295.88;87670;1275;208690;-67
2023/07/04 19:53:17;;;;;;;5.80;4.90;;;;;;;24.71;47.31;100294.02;87878;1278;137555;-65
2023/07/04 19:55:19;;;;;;;6.80;5.10;;;;;;;24.65;47.60;100295.63;88047;1274;25426;-66
2023/07/04 19:57:21;;;;;;;5.20;4.50;;;;;;;24.62;47.70;100298.48;87906;1272;137839;-67
2023/07/04 19:59:23;;;;;;;6.60;4.80;;;;;;;24.53;47.90;100292.00;87961;1275;22557;-64
2023/07/04 20:01:31;;;;;;;6.40;4.30;;;;;;;24.56;48.11;100299.08;87743;1279;139878;-67
2023/07/04 20:03:34;;;;;;;8.00;4.70;;;;;;;24.51;48.39;100304.86;88075;1279;22630;-66
2023/07/04 20:05:36;;;;;;;7.90;4.60;;;;;;;24.46;48.57;100311.48;88152;1278;137975;-66
2023/07/04 20:07:37;;;;;;;6.20;5.60;;;;;;;24.42;48.80;100316.89;87922;1272;22981;-66
2023/07/04 20:09:39;;;;;;;6.10;4.90;;;;;;;24.37;49.11;100322.75;87931;1272;138448;-68
2023/07/04 20:11:40;;;;;;;6.80;4.90;;;;;;;24.33;49.35;100325.38;87825;1277;22630;-65
2023/07/04 20:13:43;;;;;;;4.60;4.00;;;;;;;24.29;49.57;100326.33;87676;1281;137310;-66
2023/07/04 20:15:46;;;;;;;6.40;5.40;;;;;;;24.28;49.38;100325.85;87843;1278;22615;-66
2023/07/04 20:17:47;;;;;;;7.70;5.20;;;;;;;24.24;49.51;100326.41;87633;1278;137727;-67
2023/07/04 20:19:49;;;;;;;5.50;5.00;;;;;;;24.20;49.86;100328.23;87836;1273;24251;-66
2023/07/04 20:21:51;;;;;;;7.00;5.00;;;;;;;24.18;50.06;100327.86;87856;1278;137099;-68
2023/07/04 20:23:53;;;;;;;7.40;5.10;;;;;;;24.16;50.20;100328.47;87981;1272;22566;-69
2023/07/04 20:25:59;;;;;;;6.20;4.60;;;;;;;24.15;50.26;100326.17;87915;1279;137501;-64
2023/07/04 20:28:03;;;;;;;9.80;5.30;;;;;;;24.11;50.56;100330.23;88041;1273;25240;-68
2023/07/04 20:30:06;;;;;;;6.40;4.30;;;;;;;24.06;50.72;100327.03;88255;1281;23881;-64
2023/07/04 20:32:08;;;;;;;7.80;5.90;;;;;;;24.02;51.05;100328.63;88599;1272;138576;-67
2023/07/04 20:34:09;;;;;;;6.10;5.40;;;;;;;24.00;51.25;100328.80;87856;1280;24198;-65
2023/07/04 20:36:11;;;;;;;5.70;5.20;;;;;;;23.97;51.42;100329.41;87845;1269;137253;-67
2023/07/04 20:38:15;;;;;;;5.70;4.90;;;;;;;23.94;51.59;100328.77;88137;1272;23060;-63
2023/07/04 20:40:17;;;;;;;6.90;5.20;;;;;;;23.91;51.74;100328.79;90935;1276;137329;-65
2023/07/04 20:42:20;;;;;;;7.10;5.20;;;;;;;23.89;51.93;100330.27;91170;1272;22734;-67